createdAt,value
2017-09-19T00:02:15.444Z,13.87
2017-09-19T00:04:43.324Z,13.23
2017-09-19T00:07:10.926Z,13.67
2017-09-19T00:09:38.626Z,14.53
2017-09-19T00:12:06.211Z,13.40
2017-09-19T00:14:33.840Z,12.87
2017-09-19T00:17:01.424Z,13.33
2017-09-19T00:19:29.013Z,13.73
2017-09-19T00:21:56.630Z,13.63
2017-09-19T00:24:24.238Z,13.60
2017-09-19T00:26:51.825Z,13.63
2017-09-19T00:29:19.452Z,13.57
2017-09-19T00:31:47.043Z,13.83
2017-09-19T00:34:14.628Z,13.23
2017-09-19T00:36:42.668Z,13.73
2017-09-19T00:39:10.254Z,14.03
2017-09-19T00:41:37.864Z,13.60
2017-09-19T00:44:05.492Z,13.40
2017-09-19T00:46:33.679Z,14.40
2017-09-19T00:49:01.272Z,13.83
2017-09-19T00:51:28.889Z,13.50
2017-09-19T00:53:56.796Z,13.80
2017-09-19T00:56:24.444Z,13.93
2017-09-19T00:58:52.059Z,13.40
2017-09-19T01:01:19.651Z,14.30
2017-09-19T01:03:47.270Z,14.10
2017-09-19T01:06:14.882Z,14.53
2017-09-19T01:08:42.511Z,14.90
2017-09-19T01:11:10.095Z,15.30
2017-09-19T01:13:37.689Z,15.60
2017-09-19T01:16:05.294Z,14.90
2017-09-19T01:18:32.887Z,15.53
2017-09-19T01:21:00.513Z,15.60
2017-09-19T01:23:28.440Z,16.03
2017-09-19T01:25:56.028Z,15.27
2017-09-19T01:28:23.662Z,15.60
2017-09-19T01:30:51.298Z,14.60
2017-09-19T01:33:18.927Z,15.17
2017-09-19T01:35:46.551Z,15.60
2017-09-19T01:38:14.143Z,15.50
2017-09-19T01:40:42.099Z,15.90
2017-09-19T01:43:09.683Z,14.73
2017-09-19T01:45:37.313Z,15.80
2017-09-19T01:48:04.919Z,15.63
2017-09-19T01:50:32.525Z,15.33
2017-09-19T01:53:00.169Z,15.57
2017-09-19T01:55:27.755Z,15.63
2017-09-19T01:57:55.388Z,15.77
2017-09-19T02:00:22.974Z,14.40
2017-09-19T02:02:50.553Z,15.93
2017-09-19T02:05:18.176Z,15.67
2017-09-19T02:07:45.768Z,15.43
2017-09-19T02:10:13.392Z,14.60
2017-09-19T02:12:40.986Z,14.77
2017-09-19T02:15:08.587Z,15.57
2017-09-19T02:17:36.208Z,14.70
2017-09-19T02:20:03.803Z,14.70
2017-09-19T02:22:31.427Z,15.47
2017-09-19T02:24:59.024Z,13.60
2017-09-19T02:27:26.638Z,14.67
2017-09-19T02:29:54.271Z,15.20
2017-09-19T02:32:22.102Z,15.77
2017-09-19T02:34:50.056Z,15.30
2017-09-19T02:37:17.664Z,14.97
2017-09-19T02:39:45.252Z,15.33
2017-09-19T02:42:12.859Z,15.27
2017-09-19T02:44:40.444Z,14.80
2017-09-19T02:47:08.080Z,14.93
2017-09-19T02:49:35.734Z,15.30
2017-09-19T02:52:03.329Z,14.60
2017-09-19T02:54:31.197Z,14.77
2017-09-19T02:56:58.780Z,15.53
2017-09-19T02:59:26.691Z,14.80
2017-09-19T03:01:54.319Z,14.50
2017-09-19T03:04:21.924Z,15.57
2017-09-19T03:06:49.523Z,14.43
2017-09-19T03:09:17.104Z,15.10
2017-09-19T03:11:44.744Z,15.27
2017-09-19T03:14:12.327Z,15.03
2017-09-19T03:16:39.939Z,14.27
2017-09-19T03:19:07.564Z,14.70
2017-09-19T03:21:35.161Z,14.47
2017-09-19T03:24:02.787Z,15.10
2017-09-19T03:26:30.701Z,15.40
2017-09-19T03:28:58.551Z,13.83
2017-09-19T03:31:26.179Z,14.43
2017-09-19T03:33:53.771Z,14.53
2017-09-19T03:36:21.396Z,13.87
2017-09-19T03:38:48.975Z,14.70
2017-09-19T03:41:16.572Z,14.07
2017-09-19T03:43:44.218Z,14.10
2017-09-19T03:46:11.804Z,15.20
2017-09-19T03:48:39.436Z,14.87
2017-09-19T03:51:07.029Z,15.03
2017-09-19T03:53:34.674Z,14.53
2017-09-19T03:56:02.318Z,15.10
2017-09-19T03:58:29.907Z,14.97
2017-09-19T04:00:57.555Z,15.67
2017-09-19T04:03:25.141Z,15.53
2017-09-19T04:05:52.756Z,15.00
2017-09-19T04:08:20.373Z,15.17
2017-09-19T04:10:47.971Z,15.60
2017-09-19T04:13:15.603Z,15.83
2017-09-19T04:15:43.218Z,15.50
2017-09-19T04:18:11.092Z,15.47
2017-09-19T04:20:38.707Z,14.77
2017-09-19T04:23:06.315Z,15.43
2017-09-19T04:25:33.966Z,16.27
2017-09-19T04:28:01.564Z,15.73
2017-09-19T04:30:29.140Z,16.10
2017-09-19T04:32:56.751Z,16.13
2017-09-19T04:35:24.331Z,16.70
2017-09-19T04:37:51.963Z,16.53
2017-09-19T04:40:19.605Z,16.20
2017-09-19T04:42:47.188Z,17.00
2017-09-19T04:45:14.807Z,16.90
2017-09-19T04:47:42.381Z,18.07
2017-09-19T04:50:10.020Z,16.03
2017-09-19T04:52:37.601Z,16.10
2017-09-19T04:55:05.213Z,16.23
2017-09-19T04:57:32.842Z,17.60
2017-09-19T05:00:00.747Z,18.87
2017-09-19T05:02:28.368Z,17.10
2017-09-19T05:04:55.948Z,18.10
2017-09-19T05:07:23.537Z,17.97
2017-09-19T05:09:51.149Z,18.17
2017-09-19T05:12:18.719Z,18.80
2017-09-19T05:14:46.623Z,19.03
2017-09-19T05:17:14.196Z,19.03
2017-09-19T05:19:41.791Z,18.80
2017-09-19T05:22:09.713Z,18.90
2017-09-19T05:24:37.292Z,19.77
2017-09-19T05:27:04.922Z,20.57
2017-09-19T05:29:32.500Z,21.40
2017-09-19T05:32:00.364Z,20.60
2017-09-19T05:34:27.976Z,19.80
2017-09-19T05:36:55.568Z,21.60
2017-09-19T05:39:23.186Z,19.03
2017-09-19T05:41:50.764Z,20.60
2017-09-19T05:44:18.342Z,18.80
2017-09-19T05:46:45.972Z,19.33
2017-09-19T05:49:13.789Z,19.70
2017-09-19T05:51:41.407Z,19.50
2017-09-19T05:54:09.004Z,19.53
2017-09-19T05:56:36.594Z,20.10
2017-09-19T05:59:04.204Z,19.37
2017-09-19T06:01:31.800Z,20.07
2017-09-19T06:03:59.421Z,19.10
2017-09-19T06:06:27.006Z,19.13
2017-09-19T06:09:06.373Z,19.30
2017-09-19T06:11:33.960Z,21.30
2017-09-19T06:14:01.560Z,19.83
2017-09-19T06:16:29.165Z,21.97
2017-09-19T06:18:56.736Z,19.40
2017-09-19T06:21:24.390Z,20.93
2017-09-19T06:23:51.994Z,19.77
2017-09-19T06:26:19.576Z,20.70
2017-09-19T06:28:47.186Z,20.00
2017-09-19T06:31:14.785Z,20.60
2017-09-19T06:33:42.411Z,18.63
2017-09-19T06:36:10.033Z,20.00
2017-09-19T06:38:37.606Z,20.57
2017-09-19T06:41:05.372Z,20.33
2017-09-19T06:43:32.952Z,19.00
2017-09-19T06:46:00.576Z,18.67
2017-09-19T06:48:28.165Z,17.90
2017-09-19T06:50:55.796Z,18.63
2017-09-19T06:53:23.397Z,19.70
2017-09-19T06:55:51.001Z,19.03
2017-09-19T06:58:18.604Z,18.70
2017-09-19T07:00:46.239Z,18.53
2017-09-19T07:03:13.836Z,17.90
2017-09-19T07:05:41.435Z,18.73
2017-09-19T07:08:09.061Z,17.50
2017-09-19T07:10:36.643Z,18.90
2017-09-19T07:13:04.486Z,18.70
2017-09-19T07:15:32.097Z,17.33
2017-09-19T07:17:59.681Z,17.17
2017-09-19T07:20:27.299Z,18.07
2017-09-19T07:22:54.884Z,17.70
2017-09-19T07:25:22.801Z,18.97
2017-09-19T07:27:50.411Z,16.90
2017-09-19T07:30:18.026Z,16.37
2017-09-19T07:32:45.646Z,17.50
2017-09-19T07:35:13.233Z,17.50
2017-09-19T07:37:40.849Z,17.23
2017-09-19T07:40:08.517Z,17.20
2017-09-19T07:42:36.098Z,16.40
2017-09-19T07:45:03.713Z,16.57
2017-09-19T07:47:31.384Z,17.20
2017-09-19T07:49:58.976Z,17.60
2017-09-19T07:52:26.893Z,16.60
2017-09-19T07:54:54.488Z,16.23
2017-09-19T07:57:22.103Z,16.67
2017-09-19T07:59:49.710Z,16.73
2017-09-19T08:02:17.293Z,16.40
2017-09-19T08:04:44.904Z,15.40
2017-09-19T08:07:12.779Z,17.00
2017-09-19T08:09:40.428Z,16.30
2017-09-19T08:12:08.010Z,15.50
2017-09-19T08:14:35.598Z,16.70
2017-09-19T08:17:03.465Z,16.50
2017-09-19T08:19:31.072Z,16.33
2017-09-19T08:21:58.686Z,14.70
2017-09-19T08:24:26.290Z,15.60
2017-09-19T08:26:53.883Z,15.23
2017-09-19T08:29:21.507Z,15.60
2017-09-19T08:31:49.090Z,16.70
2017-09-19T08:34:16.719Z,15.80
2017-09-19T08:36:44.623Z,15.00
2017-09-19T08:39:12.195Z,15.83
2017-09-19T08:41:39.816Z,15.07
2017-09-19T08:46:41.214Z,13.57
2017-09-19T08:49:08.803Z,13.00
2017-09-19T08:51:36.400Z,12.80
2017-09-19T08:54:04.015Z,11.67
2017-09-19T08:56:31.619Z,13.07
2017-09-19T08:58:59.583Z,13.77
2017-09-19T09:01:27.167Z,12.73
2017-09-19T09:03:54.802Z,12.80
2017-09-19T09:06:22.414Z,13.80
2017-09-19T09:08:50.012Z,13.27
2017-09-19T09:11:17.627Z,12.07
2017-09-19T09:13:45.357Z,13.37
2017-09-19T09:16:13.275Z,12.10
2017-09-19T09:18:40.948Z,12.33
2017-09-19T09:21:08.529Z,11.67
2017-09-19T09:23:36.153Z,11.63
2017-09-19T09:26:03.738Z,11.20
2017-09-19T09:28:31.320Z,11.87
2017-09-19T09:30:58.940Z,11.67
2017-09-19T09:33:26.519Z,11.63
2017-09-19T09:35:54.280Z,13.23
2017-09-19T09:38:21.868Z,12.43
2017-09-19T09:40:49.442Z,12.17
2017-09-19T09:43:17.048Z,12.53
2017-09-19T09:45:44.636Z,12.30
2017-09-19T09:48:12.249Z,12.13
2017-09-19T09:50:39.831Z,13.43
2017-09-19T09:53:07.415Z,13.10
2017-09-19T09:55:35.032Z,12.73
2017-09-19T09:58:02.627Z,13.00
2017-09-19T10:00:30.248Z,12.77
2017-09-19T10:02:57.820Z,12.10
2017-09-19T10:05:25.446Z,12.37
2017-09-19T10:07:53.063Z,12.80
2017-09-19T10:10:20.640Z,12.27
2017-09-19T10:12:48.300Z,12.90
2017-09-19T10:15:15.905Z,13.00
2017-09-19T10:17:43.487Z,12.70
2017-09-19T10:20:11.101Z,12.47
2017-09-19T10:22:38.964Z,12.37
2017-09-19T10:25:06.594Z,12.50
2017-09-19T10:27:34.184Z,12.30
2017-09-19T10:30:01.764Z,11.23
2017-09-19T10:32:29.372Z,11.70
2017-09-19T10:34:56.957Z,11.23
2017-09-19T10:37:24.563Z,11.07
2017-09-19T10:39:52.176Z,10.90
2017-09-19T10:42:19.752Z,10.70
2017-09-19T10:44:47.364Z,10.87
2017-09-19T10:47:14.948Z,10.30
2017-09-19T10:49:42.569Z,10.57
2017-09-19T10:52:10.163Z,10.73
2017-09-19T10:54:37.744Z,10.37
2017-09-19T10:57:05.343Z,11.00
2017-09-19T10:59:32.938Z,11.07
2017-09-19T11:02:00.555Z,11.47
2017-09-19T11:04:28.138Z,11.10
2017-09-19T11:06:55.733Z,10.77
2017-09-19T11:09:23.340Z,10.17
2017-09-19T11:11:51.196Z,11.37
2017-09-19T11:14:18.831Z,12.00
2017-09-19T11:16:46.417Z,9.80
2017-09-19T11:19:13.995Z,10.00
2017-09-19T11:21:41.639Z,10.00
2017-09-19T11:24:09.242Z,10.23
2017-09-19T11:26:36.876Z,9.20
2017-09-19T11:29:04.460Z,10.50
2017-09-19T11:31:32.112Z,9.80
2017-09-19T11:33:59.729Z,9.47
2017-09-19T11:36:27.306Z,9.10
2017-09-19T11:38:54.922Z,8.87
2017-09-19T11:41:22.506Z,9.10
2017-09-19T11:43:50.089Z,8.60
2017-09-19T11:46:17.701Z,9.53
2017-09-19T11:48:45.284Z,8.87
2017-09-19T11:51:12.912Z,9.80
2017-09-19T11:53:40.514Z,9.70
2017-09-19T11:56:08.116Z,8.80
2017-09-19T11:58:35.718Z,9.13
2017-09-19T12:01:03.323Z,9.03
2017-09-19T12:03:30.937Z,9.07
2017-09-19T12:05:58.504Z,8.97
2017-09-19T12:08:26.085Z,9.33
2017-09-19T12:10:53.851Z,9.37
2017-09-19T12:13:21.512Z,9.43
2017-09-19T12:15:49.416Z,9.63
2017-09-19T12:18:17.361Z,9.83
2017-09-19T12:20:45.105Z,9.10
2017-09-19T12:23:13.707Z,9.33
2017-09-19T12:25:41.698Z,10.33
2017-09-19T12:28:09.432Z,9.57
2017-09-19T12:30:37.098Z,9.23
2017-09-19T12:33:04.716Z,9.60
2017-09-19T12:35:32.504Z,9.60
2017-09-19T12:38:00.580Z,8.80
2017-09-19T12:40:29.391Z,8.80
2017-09-19T12:42:57.302Z,9.07
2017-09-19T12:45:25.655Z,8.60
2017-09-19T12:47:53.814Z,8.57
2017-09-19T12:50:21.514Z,8.87
2017-09-19T12:52:49.512Z,8.90
2017-09-19T12:55:17.878Z,8.60
2017-09-19T12:57:45.931Z,9.27
2017-09-19T13:00:13.623Z,9.40
2017-09-19T13:02:41.312Z,8.80
2017-09-19T13:05:09.002Z,8.80
2017-09-19T13:07:36.596Z,8.80
2017-09-19T13:10:04.511Z,8.93
2017-09-19T13:12:34.371Z,9.23
2017-09-19T13:15:02.478Z,9.40
2017-09-19T13:17:30.242Z,8.70
2017-09-19T13:19:58.174Z,8.80
2017-09-19T13:22:25.778Z,8.93
2017-09-19T13:24:53.693Z,8.70
2017-09-19T13:27:21.282Z,9.20
2017-09-19T13:29:48.907Z,9.70
2017-09-19T13:32:28.344Z,8.90
2017-09-19T13:34:55.953Z,8.73
2017-09-19T13:37:23.531Z,8.90
2017-09-19T13:39:51.109Z,9.23
2017-09-19T13:42:18.715Z,9.10
2017-09-19T13:44:46.302Z,8.60
2017-09-19T13:47:13.954Z,8.90
2017-09-19T13:49:41.568Z,9.40
2017-09-19T13:52:09.147Z,9.00
2017-09-19T13:54:36.759Z,8.50
2017-09-19T13:57:04.340Z,8.97
2017-09-19T13:59:32.036Z,8.80
2017-09-19T14:01:59.904Z,8.90
2017-09-19T14:04:28.342Z,8.90
2017-09-19T14:06:55.937Z,8.90
2017-09-19T14:09:23.580Z,9.10
2017-09-19T14:11:51.215Z,8.70
2017-09-19T14:14:18.791Z,9.43
2017-09-19T14:16:46.368Z,9.00
2017-09-19T14:19:14.005Z,8.60
2017-09-19T14:21:41.592Z,9.00
2017-09-19T14:24:09.214Z,8.80
2017-09-19T14:26:36.798Z,8.60
2017-09-19T14:29:04.464Z,9.10
2017-09-19T14:31:32.084Z,9.40
2017-09-19T14:34:02.023Z,9.20
2017-09-19T14:36:29.783Z,8.60
2017-09-19T14:38:57.422Z,8.60
2017-09-19T14:41:25.024Z,9.00
2017-09-19T14:43:52.636Z,8.80
2017-09-19T14:46:20.215Z,8.87
2017-09-19T14:48:48.061Z,8.83
2017-09-19T14:51:15.684Z,9.23
2017-09-19T14:53:43.309Z,9.07
2017-09-19T14:56:10.962Z,10.83
2017-09-19T14:58:39.275Z,8.90
2017-09-19T15:01:06.942Z,9.40
2017-09-19T15:03:34.866Z,9.20
2017-09-19T15:06:02.440Z,9.50
2017-09-19T15:08:30.010Z,8.80
2017-09-19T15:10:57.615Z,9.47
2017-09-19T15:13:25.205Z,9.10
2017-09-19T15:15:52.820Z,9.30
2017-09-19T15:18:20.390Z,9.20
2017-09-19T15:20:47.995Z,8.90
2017-09-19T15:23:15.863Z,9.30
2017-09-19T15:25:43.452Z,9.13
2017-09-19T15:28:11.114Z,8.70
2017-09-19T15:30:38.696Z,9.33
2017-09-19T15:33:06.299Z,8.97
2017-09-19T15:35:33.934Z,9.67
2017-09-19T15:38:01.571Z,9.73
2017-09-19T15:40:29.249Z,9.60
2017-09-19T15:42:56.949Z,9.40
2017-09-19T15:45:24.540Z,9.07
2017-09-19T15:47:52.144Z,9.40
2017-09-19T15:50:19.752Z,9.37
2017-09-19T15:52:47.732Z,9.63
2017-09-19T15:55:15.344Z,9.17
2017-09-19T15:57:43.018Z,9.00
2017-09-19T16:00:10.646Z,9.80
2017-09-19T16:02:38.287Z,9.30
2017-09-19T16:05:05.976Z,9.23
2017-09-19T16:07:33.588Z,9.47
2017-09-19T16:10:01.180Z,9.30
2017-09-19T16:12:28.803Z,9.67
2017-09-19T16:14:56.395Z,9.13
2017-09-19T16:17:24.339Z,9.50
2017-09-19T16:19:51.906Z,9.73
2017-09-19T16:22:19.546Z,9.90
2017-09-19T16:24:47.165Z,9.63
2017-09-19T16:27:14.762Z,9.70
2017-09-19T16:29:42.685Z,9.83
2017-09-19T16:32:10.261Z,9.90
2017-09-19T16:34:37.849Z,9.57
2017-09-19T16:37:05.487Z,10.00
2017-09-19T16:39:33.096Z,10.17
2017-09-19T16:42:00.723Z,9.60
2017-09-19T16:44:28.326Z,10.00
2017-09-19T16:46:55.927Z,9.80
2017-09-19T16:49:23.562Z,10.10
2017-09-19T16:51:51.182Z,9.73
2017-09-19T16:54:18.809Z,9.90
2017-09-19T16:56:46.408Z,10.03
2017-09-19T16:59:14.012Z,10.50
2017-09-19T17:01:41.690Z,10.00
2017-09-19T17:04:09.288Z,10.50
2017-09-19T17:06:36.915Z,10.47
2017-09-19T17:09:04.586Z,10.33
2017-09-19T17:11:32.182Z,10.47
2017-09-19T17:13:59.790Z,10.03
2017-09-19T17:16:27.412Z,10.40
2017-09-19T17:18:55.056Z,9.90
2017-09-19T17:21:22.668Z,10.83
2017-09-19T17:23:50.249Z,12.27
2017-09-19T17:26:17.851Z,11.17
2017-09-19T17:28:45.434Z,9.93
2017-09-19T17:31:13.071Z,10.40
2017-09-19T17:33:40.674Z,10.47
2017-09-19T17:36:08.273Z,11.03
2017-09-19T17:38:35.899Z,10.93
2017-09-19T17:41:03.490Z,11.07
2017-09-19T17:43:31.127Z,10.90
2017-09-19T17:45:58.733Z,11.03
2017-09-19T17:48:26.330Z,10.60
2017-09-19T17:50:53.931Z,11.27
2017-09-19T17:53:21.525Z,11.10
2017-09-19T17:55:49.444Z,11.00
2017-09-19T17:58:17.073Z,10.77
2017-09-19T18:00:44.657Z,11.90
2017-09-19T18:03:12.294Z,13.80
2017-09-19T18:05:39.895Z,12.97
2017-09-19T18:08:07.517Z,12.80
2017-09-19T18:10:35.098Z,12.50
2017-09-19T18:13:02.688Z,12.20
2017-09-19T18:15:30.292Z,12.90
2017-09-19T18:17:57.871Z,12.97
2017-09-19T18:20:25.867Z,12.97
2017-09-19T18:22:53.462Z,12.80
2017-09-19T18:25:21.052Z,13.03
2017-09-19T18:27:48.659Z,13.10
2017-09-19T18:30:16.620Z,11.83
2017-09-19T18:32:44.236Z,12.83
2017-09-19T18:35:11.941Z,12.60
2017-09-19T18:37:39.620Z,12.67
2017-09-19T18:40:07.278Z,12.70
2017-09-19T18:42:34.856Z,13.43
2017-09-19T18:45:02.477Z,13.73
2017-09-19T18:47:30.062Z,13.70
2017-09-19T18:49:57.664Z,15.07
2017-09-19T18:52:25.271Z,14.10
2017-09-19T18:54:52.852Z,13.90
2017-09-19T18:57:20.477Z,13.67
2017-09-19T18:59:48.474Z,14.00
2017-09-19T19:02:16.056Z,15.13
2017-09-19T19:04:43.685Z,14.10
2017-09-19T19:07:11.268Z,13.60
2017-09-19T19:09:39.229Z,14.27
2017-09-19T19:12:07.129Z,13.37
2017-09-19T19:14:35.066Z,13.60
2017-09-19T19:17:03.032Z,15.00
2017-09-19T19:19:30.631Z,14.37
2017-09-19T19:21:58.278Z,14.23
2017-09-19T19:24:26.131Z,14.77
2017-09-19T19:26:53.726Z,13.47
2017-09-19T19:29:21.339Z,13.70
2017-09-19T19:31:48.957Z,14.10
2017-09-19T19:34:16.595Z,15.03
2017-09-19T19:36:44.203Z,14.10
2017-09-19T19:39:11.781Z,13.30
2017-09-19T19:41:39.389Z,14.30
2017-09-19T19:44:06.988Z,15.03
2017-09-19T19:46:34.612Z,14.60
2017-09-19T19:49:02.196Z,14.20
2017-09-19T19:51:29.790Z,14.23
2017-09-19T19:53:57.439Z,14.63
2017-09-19T19:56:25.347Z,14.80
2017-09-19T19:58:52.972Z,14.83
2017-09-19T20:01:20.559Z,14.70
2017-09-19T20:03:48.226Z,13.17
2017-09-19T20:06:15.879Z,14.03
2017-09-19T20:08:43.484Z,14.60
2017-09-19T20:11:11.096Z,13.47
2017-09-19T20:13:38.672Z,15.17
2017-09-19T20:16:06.265Z,14.97
2017-09-19T20:18:33.877Z,14.80
2017-09-19T20:21:01.455Z,13.80
2017-09-19T20:23:29.324Z,14.67
2017-09-19T20:25:56.903Z,15.00
2017-09-19T20:28:24.500Z,14.30
2017-09-19T20:30:52.115Z,14.77
2017-09-19T20:33:19.702Z,15.90
2017-09-19T20:35:47.315Z,15.47
2017-09-19T20:38:14.920Z,15.50
2017-09-19T20:40:42.558Z,16.60
2017-09-19T20:43:10.173Z,15.90
2017-09-19T20:45:37.751Z,16.00
2017-09-19T20:48:05.390Z,17.50
2017-09-19T20:50:33.250Z,16.17
2017-09-19T20:53:00.948Z,17.17
2017-09-19T20:55:28.803Z,15.70
2017-09-19T20:57:56.576Z,16.60
2017-09-19T21:00:24.209Z,16.70
2017-09-19T21:02:51.260Z,16.40
2017-09-19T21:05:24.596Z,16.30
2017-09-19T21:07:57.751Z,16.70
2017-09-19T21:10:31.922Z,16.10
2017-09-19T21:13:05.392Z,16.30
2017-09-19T21:15:38.588Z,16.10
2017-09-19T21:18:11.648Z,15.80
2017-09-19T21:20:38.779Z,17.20
2017-09-19T21:23:07.266Z,16.50
2017-09-19T21:25:34.883Z,16.80
2017-09-19T21:28:02.741Z,16.93
2017-09-19T21:30:30.331Z,16.00
2017-09-19T21:32:58.951Z,17.50
2017-09-19T21:35:26.880Z,16.30
2017-09-19T21:37:54.492Z,16.27
2017-09-19T21:40:22.414Z,16.93
2017-09-19T21:42:50.271Z,17.10
2017-09-19T21:45:17.854Z,16.20
2017-09-19T21:47:45.824Z,16.50
2017-09-19T21:50:13.444Z,16.37
2017-09-19T21:52:41.048Z,16.50
2017-09-19T21:55:09.758Z,15.97
2017-09-19T21:57:40.432Z,15.93
2017-09-19T22:00:08.033Z,16.83
2017-09-19T22:02:36.352Z,17.80
2017-09-19T22:05:03.967Z,18.87
2017-09-19T22:07:31.579Z,17.67
2017-09-19T22:09:59.159Z,18.17
2017-09-19T22:12:26.744Z,16.70
2017-09-19T22:14:54.359Z,17.50
2017-09-19T22:17:22.268Z,18.50
2017-09-19T22:19:49.847Z,17.83
2017-09-19T22:22:17.455Z,17.50
2017-09-19T22:24:45.035Z,18.13
2017-09-19T22:27:12.648Z,18.90
2017-09-19T22:29:40.224Z,18.70
2017-09-19T22:32:07.811Z,19.00
2017-09-19T22:34:35.424Z,18.43
2017-09-19T22:37:03.036Z,18.70
2017-09-19T22:39:30.661Z,18.10
2017-09-19T22:41:58.244Z,17.50
2017-09-19T22:44:25.827Z,18.07
2017-09-19T22:46:53.452Z,19.10
2017-09-19T22:49:21.048Z,20.00
2017-09-19T22:51:48.672Z,19.90
2017-09-19T22:54:16.260Z,19.47
2017-09-19T22:56:43.836Z,19.30
2017-09-19T22:59:11.447Z,20.27
2017-09-19T23:01:39.037Z,20.90
2017-09-19T23:04:06.651Z,19.20
2017-09-19T23:06:34.974Z,19.70
2017-09-19T23:09:02.559Z,17.80
2017-09-19T23:11:30.464Z,18.43
2017-09-19T23:13:58.040Z,19.43
2017-09-19T23:16:25.670Z,20.37
2017-09-19T23:18:53.247Z,19.47
2017-09-19T23:21:20.825Z,20.37
2017-09-19T23:23:48.434Z,20.43
2017-09-19T23:26:16.226Z,21.07
2017-09-19T23:28:43.833Z,19.07
2017-09-19T23:31:11.409Z,19.70
2017-09-19T23:33:38.997Z,20.13
2017-09-19T23:36:06.599Z,20.33
2017-09-19T23:38:34.179Z,20.90
2017-09-19T23:41:01.808Z,20.67
2017-09-19T23:43:29.390Z,20.40
2017-09-19T23:45:56.976Z,20.00
2017-09-19T23:48:24.590Z,21.47
2017-09-19T23:50:52.444Z,20.03
2017-09-19T23:53:20.073Z,22.37
2017-09-19T23:55:47.691Z,21.30
2017-09-19T23:58:15.278Z,22.10
